HK-0004 weather

Ping Chau Helipad
Ping Chau Island, Hong Kong

Public forecast

Using degrees Celsius for public forecast. Weather courtesy of forecast.io.

Closest aviation weather report (METAR) to Ping Chau Helipad

Closest report is Hong Kong International Airport, 31.9 nm (59.1 km) WSW. Retrieved 2019/10/19 08:30 UTC (0 seconds ago):

VHHH 190830Z 27006KT 9999 FEW040 28/17 Q1016 BECMG 08010KT

Closest aviation forecast (TAF) to Ping Chau Helipad

Closest forecast is Hong Kong International Airport, 31.9 nm (59.1 km) WSW. Retrieved 2019/10/19 06:24 UTC (2 hours ago):

TAF VHHH 190500Z 1906/2012 32010KT 9999 FEW040 TX30/1906Z TX29/2006Z TN24/1922Z BECMG 1909/1911 07010KT TEMPO 2003/2009 28010KT TEMPO 2009/2012 14010KT